createdAt,value
2019-01-30T00:00:45.528Z,112.87
2019-01-30T00:03:14.231Z,109.57
2019-01-30T00:05:42.948Z,89.50
2019-01-30T00:08:11.676Z,143.65
2019-01-30T00:10:40.312Z,115.80
2019-01-30T00:13:09.027Z,115.15
2019-01-30T00:15:37.777Z,106.15
2019-01-30T00:18:06.431Z,126.17
2019-01-30T00:20:35.142Z,107.47
2019-01-30T00:23:03.999Z,90.15
2019-01-30T00:25:32.707Z,104.17
2019-01-30T00:28:01.415Z,107.75
2019-01-30T00:30:30.197Z,105.03
2019-01-30T00:32:58.903Z,92.55
2019-01-30T00:35:27.819Z,90.20
2019-01-30T00:37:58.479Z,87.53
2019-01-30T00:40:27.047Z,95.65
2019-01-30T00:42:55.683Z,86.28
2019-01-30T00:45:24.695Z,131.27
2019-01-30T00:47:53.434Z,101.10
2019-01-30T00:50:24.322Z,104.70
2019-01-30T00:52:53.223Z,108.27
2019-01-30T00:55:22.359Z,97.17
2019-01-30T00:57:51.002Z,100.97
2019-01-30T01:00:24.871Z,94.25
2019-01-30T01:02:53.540Z,92.90
2019-01-30T01:05:22.539Z,87.80
2019-01-30T01:07:51.244Z,92.43
2019-01-30T01:10:21.410Z,80.87
2019-01-30T01:12:50.345Z,93.22
2019-01-30T01:15:19.268Z,111.90
2019-01-30T01:17:48.075Z,78.85
2019-01-30T01:20:24.146Z,80.67
2019-01-30T01:22:52.822Z,84.17
2019-01-30T01:25:21.562Z,79.85
2019-01-30T01:27:50.272Z,82.00
2019-01-30T01:30:25.548Z,78.90
2019-01-30T01:32:54.397Z,79.53
2019-01-30T01:35:23.241Z,82.02
2019-01-30T01:37:51.988Z,75.62
2019-01-30T01:40:20.685Z,73.40
2019-01-30T01:42:49.336Z,78.23
2019-01-30T01:45:23.824Z,79.35
2019-01-30T01:47:52.523Z,84.65
2019-01-30T01:50:22.492Z,76.42
2019-01-30T01:52:51.250Z,78.75
2019-01-30T01:55:20.168Z,79.58
2019-01-30T01:57:48.999Z,71.30
2019-01-30T02:00:22.375Z,69.80
2019-01-30T02:02:51.585Z,71.15
2019-01-30T02:05:22.017Z,71.07
2019-01-30T02:07:51.090Z,69.72
2019-01-30T02:10:22.318Z,69.65
2019-01-30T02:12:51.030Z,69.75
2019-01-30T02:15:21.622Z,67.30
2019-01-30T02:17:50.832Z,65.37
2019-01-30T02:20:21.867Z,64.97
2019-01-30T02:22:52.374Z,67.72
2019-01-30T02:25:21.049Z,63.33
2019-01-30T02:27:49.723Z,64.43
2019-01-30T02:30:20.743Z,65.37
2019-01-30T02:32:49.461Z,61.73
2019-01-30T02:35:18.115Z,59.95
2019-01-30T02:37:46.823Z,63.25
2019-01-30T02:40:17.994Z,66.47
2019-01-30T02:42:46.809Z,61.25
2019-01-30T02:45:20.791Z,59.57
2019-01-30T02:47:49.463Z,60.33
2019-01-30T02:50:19.669Z,64.23
2019-01-30T02:52:48.544Z,62.23
2019-01-30T02:55:19.087Z,64.27
2019-01-30T02:57:47.799Z,63.17
2019-01-30T03:00:21.885Z,62.83
2019-01-30T03:02:50.498Z,64.95
2019-01-30T03:05:19.410Z,68.37
2019-01-30T03:07:48.175Z,60.57
2019-01-30T03:10:18.790Z,62.87
2019-01-30T03:12:47.678Z,63.47
2019-01-30T03:15:26.538Z,60.40
2019-01-30T03:17:55.184Z,62.93
2019-01-30T03:20:28.694Z,62.97
2019-01-30T03:22:57.379Z,65.60
2019-01-30T03:25:26.687Z,65.70
2019-01-30T03:27:55.615Z,62.93
2019-01-30T03:30:26.996Z,61.13
2019-01-30T03:32:55.818Z,52.77
2019-01-30T03:35:24.909Z,47.10
2019-01-30T03:37:53.545Z,42.23
2019-01-30T03:40:23.368Z,39.73
2019-01-30T03:42:52.032Z,36.00
2019-01-30T03:45:22.639Z,34.20
2019-01-30T03:47:51.264Z,34.40
2019-01-30T03:50:20.317Z,33.27
2019-01-30T03:52:49.032Z,30.82
2019-01-30T03:55:19.364Z,31.03
2019-01-30T03:57:48.139Z,29.65
2019-01-30T04:00:21.651Z,27.40
2019-01-30T04:02:50.782Z,28.62
2019-01-30T04:05:19.685Z,30.40
2019-01-30T04:07:48.323Z,35.17
2019-01-30T04:10:24.627Z,26.10
2019-01-30T04:12:53.337Z,22.63
2019-01-30T04:15:22.318Z,23.23
2019-01-30T04:17:51.007Z,21.27
2019-01-30T04:20:22.949Z,24.10
2019-01-30T04:22:51.620Z,23.67
2019-01-30T04:25:20.359Z,25.00
2019-01-30T04:27:49.067Z,26.77
2019-01-30T04:30:20.368Z,29.90
2019-01-30T04:32:49.093Z,28.60
2019-01-30T04:35:17.791Z,30.62
2019-01-30T04:37:46.418Z,28.30
2019-01-30T04:40:17.337Z,28.80
2019-01-30T04:42:45.977Z,30.17
2019-01-30T04:45:17.420Z,28.07
2019-01-30T04:47:46.081Z,27.95
2019-01-30T04:50:14.817Z,31.05
2019-01-30T04:52:43.449Z,28.80
2019-01-30T04:55:12.578Z,32.27
2019-01-30T04:57:41.327Z,30.45
2019-01-30T05:00:12.942Z,35.23
2019-01-30T05:02:41.898Z,34.83
2019-01-30T05:05:11.951Z,33.23
2019-01-30T05:07:40.569Z,32.78
2019-01-30T05:10:11.614Z,32.00
2019-01-30T05:12:40.292Z,32.88
2019-01-30T05:15:20.251Z,34.67
2019-01-30T05:17:49.191Z,32.08
2019-01-30T05:20:39.040Z,30.80
2019-01-30T05:23:35.139Z,33.10
2019-01-30T05:26:03.883Z,34.40
2019-01-30T05:28:32.666Z,32.85
2019-01-30T05:31:01.365Z,36.77
2019-01-30T05:33:30.343Z,34.67
2019-01-30T05:35:59.072Z,35.20
2019-01-30T05:38:27.761Z,38.27
2019-01-30T05:40:56.483Z,36.23
2019-01-30T05:43:25.117Z,37.03
2019-01-30T05:45:53.740Z,35.63
2019-01-30T05:48:22.735Z,35.00
2019-01-30T05:50:51.393Z,37.17
2019-01-30T05:53:20.083Z,38.75
2019-01-30T05:55:48.801Z,40.83
2019-01-30T05:58:17.451Z,37.80
2019-01-30T06:00:46.170Z,39.70
2019-01-30T06:03:14.918Z,46.77
2019-01-30T06:05:43.555Z,44.77
2019-01-30T06:08:12.186Z,43.98
2019-01-30T06:10:40.869Z,46.40
2019-01-30T06:13:09.506Z,44.73
2019-01-30T06:15:38.152Z,45.88
2019-01-30T06:18:07.094Z,46.92
2019-01-30T06:20:35.719Z,48.58
2019-01-30T06:23:04.629Z,49.70
2019-01-30T06:25:33.551Z,53.15
2019-01-30T06:28:02.188Z,46.65
2019-01-30T06:30:30.827Z,49.77
2019-01-30T06:32:59.533Z,49.00
2019-01-30T06:35:28.241Z,44.48
2019-01-30T06:37:57.159Z,47.27
2019-01-30T06:40:28.338Z,49.65
2019-01-30T06:42:57.483Z,48.00
2019-01-30T06:45:26.849Z,59.27
2019-01-30T06:47:55.485Z,49.63
2019-01-30T06:50:24.215Z,43.60
2019-01-30T06:52:52.970Z,41.50
2019-01-30T06:55:21.713Z,39.95
2019-01-30T06:57:50.336Z,39.48
2019-01-30T07:00:21.265Z,41.63
2019-01-30T07:02:50.090Z,33.23
2019-01-30T07:05:18.922Z,47.00
2019-01-30T07:07:47.651Z,42.23
2019-01-30T07:10:19.223Z,29.65
2019-01-30T07:12:48.036Z,28.10
2019-01-30T07:15:16.871Z,27.85
2019-01-30T07:17:45.588Z,31.40
2019-01-30T07:20:16.191Z,30.68
2019-01-30T07:22:45.041Z,29.25
2019-01-30T07:25:19.185Z,32.33
2019-01-30T07:27:47.935Z,32.30
2019-01-30T07:30:19.467Z,33.08
2019-01-30T07:32:48.290Z,31.80
2019-01-30T07:35:17.044Z,32.70
2019-01-30T07:37:45.674Z,39.15
2019-01-30T07:40:16.179Z,37.65
2019-01-30T07:42:44.852Z,41.08
2019-01-30T07:45:19.218Z,41.35
2019-01-30T07:47:47.855Z,45.58
2019-01-30T07:50:16.769Z,45.75
2019-01-30T07:52:45.474Z,58.05
2019-01-30T07:55:17.671Z,59.98
2019-01-30T07:57:46.656Z,50.45
2019-01-30T08:00:23.609Z,44.38
2019-01-30T08:02:53.670Z,42.90
2019-01-30T08:05:22.975Z,43.08
2019-01-30T08:07:52.965Z,57.30
2019-01-30T08:10:21.841Z,60.10
2019-01-30T08:12:50.649Z,54.35
2019-01-30T08:15:21.727Z,53.52
2019-01-30T08:17:50.399Z,50.88
2019-01-30T08:20:20.433Z,52.35
2019-01-30T08:22:49.200Z,46.40
2019-01-30T08:25:19.968Z,49.75
2019-01-30T08:27:48.973Z,48.90
2019-01-30T08:30:28.957Z,47.50
2019-01-30T08:33:04.536Z,48.68
2019-01-30T08:35:30.594Z,71.30
2019-01-30T08:37:59.691Z,52.00
2019-01-30T08:40:28.517Z,44.50
2019-01-30T08:42:57.447Z,44.40
2019-01-30T08:45:30.312Z,43.87
2019-01-30T08:47:59.285Z,44.13
2019-01-30T08:50:28.080Z,45.17
2019-01-30T08:52:56.910Z,48.85
2019-01-30T08:55:25.964Z,43.68
2019-01-30T08:57:54.792Z,44.88
2019-01-30T09:00:26.351Z,46.65
2019-01-30T09:02:55.124Z,44.60
2019-01-30T09:05:23.761Z,47.62
2019-01-30T09:07:52.486Z,45.03
2019-01-30T09:10:23.845Z,48.10
2019-01-30T09:12:52.575Z,49.85
2019-01-30T09:15:22.981Z,47.45
2019-01-30T09:17:51.644Z,47.08
2019-01-30T09:20:21.968Z,46.25
2019-01-30T09:22:50.595Z,49.83
2019-01-30T09:25:27.444Z,47.93
2019-01-30T09:27:56.254Z,51.02
2019-01-30T09:30:30.003Z,54.03
2019-01-30T09:32:58.980Z,53.92
2019-01-30T09:35:27.703Z,60.52
2019-01-30T09:37:57.247Z,55.25
2019-01-30T09:40:26.207Z,57.33
2019-01-30T09:42:54.906Z,50.90
2019-01-30T09:45:24.530Z,32.35
2019-01-30T09:47:53.517Z,25.10
2019-01-30T09:50:26.270Z,19.37
2019-01-30T09:52:55.375Z,14.33
2019-01-30T09:55:24.330Z,13.22
2019-01-30T09:57:53.141Z,16.00
2019-01-30T10:00:27.736Z,19.55
2019-01-30T10:02:59.179Z,16.52
2019-01-30T10:05:28.002Z,11.60
2019-01-30T10:07:56.806Z,11.73
2019-01-30T10:10:28.047Z,9.28
2019-01-30T10:12:56.835Z,11.18
2019-01-30T10:15:30.932Z,8.98
2019-01-30T10:17:59.552Z,8.98
2019-01-30T10:20:29.871Z,6.80
2019-01-30T10:22:58.587Z,9.55
2019-01-30T10:25:27.546Z,6.42
2019-01-30T10:27:56.242Z,6.12
2019-01-30T10:30:36.284Z,6.30
2019-01-30T10:33:05.779Z,5.55
2019-01-30T10:35:35.972Z,4.85
2019-01-30T10:38:05.575Z,3.95
2019-01-30T10:40:34.239Z,4.55
2019-01-30T10:43:02.861Z,2.87
2019-01-30T10:45:31.415Z,3.98
2019-01-30T10:48:00.261Z,4.50
2019-01-30T10:50:32.838Z,5.25
2019-01-30T10:53:01.462Z,2.37
2019-01-30T10:55:35.004Z,2.17
2019-01-30T10:58:08.121Z,4.58
2019-01-30T11:00:45.134Z,7.00
2019-01-30T11:03:13.985Z,6.60
2019-01-30T11:05:44.347Z,8.90
2019-01-30T11:08:13.066Z,9.43
2019-01-30T11:10:41.969Z,7.45
2019-01-30T11:13:10.601Z,9.20
2019-01-30T11:15:39.247Z,9.13
2019-01-30T11:18:10.693Z,8.13
2019-01-30T11:20:39.424Z,7.40
2019-01-30T11:23:08.056Z,6.92
2019-01-30T11:25:42.684Z,4.25
2019-01-30T11:28:11.429Z,4.00
2019-01-30T11:30:40.155Z,4.83
2019-01-30T11:33:08.847Z,4.12
2019-01-30T11:35:37.390Z,4.60
2019-01-30T11:38:08.861Z,3.72
2019-01-30T11:40:38.157Z,2.60
2019-01-30T11:43:06.943Z,2.75
2019-01-30T11:45:43.100Z,2.17
2019-01-30T11:48:11.791Z,3.80
2019-01-30T11:50:40.992Z,2.10
2019-01-30T11:53:09.818Z,2.77
2019-01-30T11:55:39.016Z,2.50
2019-01-30T11:58:07.926Z,2.80
2019-01-30T12:00:48.141Z,2.50
2019-01-30T12:03:16.886Z,2.58
2019-01-30T12:05:45.710Z,2.62
2019-01-30T12:08:14.362Z,2.70
2019-01-30T12:10:42.980Z,2.62
2019-01-30T12:13:11.617Z,2.92
2019-01-30T12:15:40.165Z,3.35
2019-01-30T12:18:08.871Z,2.95
2019-01-30T12:20:37.501Z,1.40
2019-01-30T12:23:06.466Z,1.55
2019-01-30T12:25:35.143Z,1.62
2019-01-30T12:28:03.771Z,2.65
2019-01-30T12:30:32.739Z,2.17
2019-01-30T12:33:01.331Z,2.37
2019-01-30T12:35:29.939Z,1.57
2019-01-30T12:37:58.655Z,2.10
2019-01-30T12:40:27.447Z,1.50
2019-01-30T12:42:56.179Z,1.92
2019-01-30T12:45:30.704Z,2.20
2019-01-30T12:47:59.491Z,2.20
2019-01-30T12:50:28.427Z,1.60
2019-01-30T12:52:57.193Z,1.72
2019-01-30T12:55:25.814Z,2.80
2019-01-30T12:57:54.532Z,2.25
2019-01-30T13:00:26.024Z,2.47
2019-01-30T13:02:54.883Z,2.65
2019-01-30T13:05:25.897Z,1.62
2019-01-30T13:07:54.829Z,2.70
2019-01-30T13:10:23.565Z,1.77
2019-01-30T13:12:52.181Z,2.05
2019-01-30T13:15:23.676Z,2.42
2019-01-30T13:17:52.403Z,2.95
2019-01-30T13:20:22.830Z,3.05
2019-01-30T13:22:51.539Z,2.83
2019-01-30T13:25:22.566Z,1.90
2019-01-30T13:27:51.178Z,3.42
2019-01-30T13:30:22.811Z,2.10
2019-01-30T13:32:51.836Z,2.60
2019-01-30T13:35:20.549Z,1.60
2019-01-30T13:37:49.211Z,2.60
2019-01-30T13:40:20.523Z,3.02
2019-01-30T13:42:49.087Z,3.20
2019-01-30T13:45:18.020Z,2.85
2019-01-30T13:47:46.653Z,2.83
2019-01-30T13:50:20.992Z,2.50
2019-01-30T13:52:49.759Z,2.25
2019-01-30T13:55:18.325Z,3.20
2019-01-30T13:57:47.046Z,3.83
2019-01-30T14:00:27.922Z,3.20
2019-01-30T14:02:56.561Z,3.87
2019-01-30T14:05:25.005Z,4.50
2019-01-30T14:07:56.780Z,6.28
2019-01-30T14:10:27.129Z,5.28
2019-01-30T14:12:55.913Z,5.97
2019-01-30T14:15:27.097Z,6.28
2019-01-30T14:17:55.673Z,8.00
2019-01-30T14:20:25.804Z,6.85
2019-01-30T14:22:54.433Z,7.92
2019-01-30T14:25:23.072Z,7.67
2019-01-30T14:27:51.806Z,6.50
2019-01-30T14:30:29.267Z,8.08
2019-01-30T14:32:57.897Z,7.33
2019-01-30T14:35:27.762Z,9.53
2019-01-30T14:37:56.484Z,11.35
2019-01-30T14:40:25.203Z,11.68
2019-01-30T14:42:53.926Z,11.15
2019-01-30T14:45:22.597Z,11.90
2019-01-30T14:47:51.881Z,11.48
2019-01-30T14:50:22.482Z,9.08
2019-01-30T14:52:51.089Z,9.00
2019-01-30T14:55:19.815Z,8.68
2019-01-30T14:57:48.821Z,9.73
2019-01-30T15:00:23.095Z,7.62
2019-01-30T15:02:51.684Z,5.95
2019-01-30T15:05:22.675Z,3.70
2019-01-30T15:07:51.566Z,2.87
2019-01-30T15:10:22.495Z,3.85
2019-01-30T15:12:51.192Z,3.90
2019-01-30T15:15:25.308Z,4.42
2019-01-30T15:17:53.984Z,5.85
2019-01-30T15:20:24.989Z,5.60
2019-01-30T15:22:53.929Z,6.35
2019-01-30T15:25:24.568Z,7.70
2019-01-30T15:27:53.238Z,7.08
2019-01-30T15:30:36.626Z,10.03
2019-01-30T15:33:06.151Z,8.13
2019-01-30T15:35:34.763Z,9.70
2019-01-30T15:38:05.397Z,9.10
2019-01-30T15:40:34.249Z,8.48
2019-01-30T15:43:02.985Z,9.43
2019-01-30T15:45:31.606Z,7.53
2019-01-30T15:48:00.520Z,9.65
2019-01-30T15:50:37.888Z,11.20
2019-01-30T15:53:09.157Z,7.25
2019-01-30T15:55:37.787Z,10.38
2019-01-30T15:58:09.026Z,11.55
2019-01-30T16:00:43.524Z,12.50
2019-01-30T16:03:12.204Z,10.70
2019-01-30T16:05:45.042Z,13.45
2019-01-30T16:08:11.524Z,17.60
2019-01-30T16:10:40.171Z,16.40
2019-01-30T16:13:08.855Z,18.77
2019-01-30T16:15:40.416Z,16.85
2019-01-30T16:18:09.096Z,15.15
2019-01-30T16:20:37.713Z,14.38
2019-01-30T16:23:06.901Z,10.70
2019-01-30T16:25:35.447Z,8.50
2019-01-30T16:28:04.679Z,10.80
2019-01-30T16:30:33.280Z,11.05
2019-01-30T16:33:01.911Z,12.07
2019-01-30T16:35:32.153Z,13.45
2019-01-30T16:38:01.240Z,8.80
2019-01-30T16:40:29.969Z,16.48
2019-01-30T16:42:58.707Z,15.40
2019-01-30T16:45:32.837Z,16.85
2019-01-30T16:48:01.422Z,17.65
2019-01-30T16:50:30.037Z,13.90
2019-01-30T16:52:58.702Z,14.00
2019-01-30T16:55:27.338Z,13.53
2019-01-30T16:57:57.277Z,15.28
2019-01-30T17:00:33.744Z,15.08
2019-01-30T17:03:04.266Z,16.73
2019-01-30T17:05:33.406Z,17.62
2019-01-30T17:08:02.086Z,20.90
2019-01-30T17:10:30.784Z,21.40
2019-01-30T17:12:59.417Z,23.77
2019-01-30T17:15:30.879Z,20.27
2019-01-30T17:17:59.443Z,18.55
2019-01-30T17:20:30.287Z,22.52
2019-01-30T17:22:59.194Z,20.72
2019-01-30T17:25:27.813Z,17.10
2019-01-30T17:27:56.482Z,19.82
2019-01-30T17:30:39.833Z,15.83
2019-01-30T17:33:08.879Z,17.15
2019-01-30T17:35:38.165Z,16.80
2019-01-30T17:38:07.136Z,16.50
2019-01-30T17:40:35.771Z,19.92
2019-01-30T17:43:04.501Z,22.77
2019-01-30T17:45:33.270Z,21.27
2019-01-30T17:48:02.290Z,21.73
2019-01-30T17:50:31.135Z,20.45
2019-01-30T17:53:00.047Z,17.50
2019-01-30T17:55:28.854Z,18.15
2019-01-30T17:57:57.432Z,19.02
2019-01-30T18:00:30.681Z,16.15
2019-01-30T18:02:59.317Z,15.55
2019-01-30T18:05:27.996Z,16.35
2019-01-30T18:07:56.675Z,15.65
2019-01-30T18:10:25.401Z,13.40
2019-01-30T18:12:54.120Z,12.23
2019-01-30T18:15:23.287Z,11.83
2019-01-30T18:17:54.274Z,13.97
2019-01-30T18:20:23.054Z,10.90
2019-01-30T18:22:51.824Z,11.47
2019-01-30T18:25:21.414Z,11.15
2019-01-30T18:27:50.130Z,9.78
2019-01-30T18:30:23.952Z,8.13
2019-01-30T18:32:52.682Z,8.05
2019-01-30T18:35:21.361Z,9.43
2019-01-30T18:37:50.023Z,8.93
2019-01-30T18:40:27.548Z,10.87
2019-01-30T18:42:56.252Z,9.05
2019-01-30T18:45:26.494Z,6.65
2019-01-30T18:47:55.996Z,5.67
2019-01-30T18:50:29.295Z,6.03
2019-01-30T18:52:58.132Z,5.03
2019-01-30T18:55:26.763Z,5.17
2019-01-30T18:57:55.984Z,5.03
2019-01-30T19:00:29.831Z,4.40
2019-01-30T19:03:00.258Z,2.80
2019-01-30T19:05:30.432Z,2.67
2019-01-30T19:07:59.121Z,3.17
2019-01-30T19:10:27.751Z,2.97
2019-01-30T19:12:56.439Z,2.00
2019-01-30T19:15:27.593Z,2.08
2019-01-30T19:17:56.310Z,2.87
2019-01-30T19:20:27.484Z,3.83
2019-01-30T19:22:56.103Z,3.98
2019-01-30T19:25:24.743Z,2.30
2019-01-30T19:27:56.013Z,2.13
2019-01-30T19:30:28.714Z,2.37
2019-01-30T19:32:57.416Z,1.80
2019-01-30T19:35:26.146Z,1.60
2019-01-30T19:37:54.964Z,1.52
2019-01-30T19:40:26.631Z,1.67
2019-01-30T19:42:55.447Z,1.62
2019-01-30T19:45:28.030Z,1.42
2019-01-30T19:47:56.650Z,1.10
2019-01-30T19:50:27.829Z,1.15
2019-01-30T19:52:56.648Z,1.22
2019-01-30T19:55:25.465Z,0.85
2019-01-30T19:57:55.188Z,1.50
2019-01-30T20:00:29.530Z,1.43
2019-01-30T20:02:58.424Z,2.17
2019-01-30T20:05:27.177Z,1.50
2019-01-30T20:07:55.878Z,0.90
2019-01-30T20:10:30.112Z,1.00
2019-01-30T20:12:58.785Z,1.17
2019-01-30T20:15:27.712Z,1.17
2019-01-30T20:17:56.421Z,1.27
2019-01-30T20:20:25.302Z,1.60
2019-01-30T20:22:53.944Z,0.90
2019-01-30T20:25:25.449Z,1.27
2019-01-30T20:27:54.181Z,0.90
2019-01-30T20:30:24.230Z,1.00
2019-01-30T20:32:53.247Z,1.10
2019-01-30T20:35:22.367Z,1.77
2019-01-30T20:37:50.995Z,2.00
2019-01-30T20:40:24.794Z,2.15
2019-01-30T20:42:53.563Z,1.90
2019-01-30T20:45:33.032Z,2.83
2019-01-30T20:47:52.713Z,3.03
2019-01-30T20:50:26.703Z,2.90
2019-01-30T20:52:55.740Z,2.60
2019-01-30T20:55:24.443Z,2.60
2019-01-30T20:57:53.109Z,3.00
2019-01-30T21:00:30.059Z,3.75
2019-01-30T21:02:58.788Z,2.33
2019-01-30T21:05:27.484Z,2.92
2019-01-30T21:07:56.101Z,3.67
2019-01-30T21:10:33.465Z,2.70
2019-01-30T21:13:08.323Z,2.62
2019-01-30T21:15:37.022Z,1.47
2019-01-30T21:18:06.685Z,1.75
2019-01-30T21:20:35.265Z,1.72
2019-01-30T21:23:05.491Z,2.22
2019-01-30T21:25:34.219Z,2.67
2019-01-30T21:28:02.856Z,3.12
2019-01-30T21:30:33.982Z,4.10
2019-01-30T21:33:02.893Z,3.65
2019-01-30T21:35:32.061Z,2.92
2019-01-30T21:38:00.720Z,1.80
2019-01-30T21:40:29.559Z,3.30
2019-01-30T21:42:58.187Z,3.30
2019-01-30T21:45:29.563Z,2.42
2019-01-30T21:47:58.274Z,1.50
2019-01-30T21:50:26.968Z,2.72
2019-01-30T21:52:55.595Z,2.73
2019-01-30T21:55:25.802Z,0.90
2019-01-30T21:57:54.504Z,1.00
2019-01-30T22:00:27.747Z,2.72
2019-01-30T22:02:56.610Z,3.80
2019-01-30T22:05:25.699Z,3.13
2019-01-30T22:08:01.048Z,1.67
2019-01-30T22:10:29.408Z,2.70
2019-01-30T22:12:58.185Z,1.10
2019-01-30T22:15:26.830Z,1.87
2019-01-30T22:17:55.479Z,1.90
2019-01-30T22:20:25.619Z,1.67
2019-01-30T22:22:54.646Z,2.30
2019-01-30T22:25:25.101Z,2.40
2019-01-30T22:27:53.709Z,3.50
2019-01-30T22:30:24.400Z,2.67
2019-01-30T22:32:53.148Z,2.60
2019-01-30T22:35:21.961Z,2.90
2019-01-30T22:37:50.639Z,6.07
2019-01-30T22:40:19.319Z,6.90
2019-01-30T22:42:48.036Z,13.13
2019-01-30T22:45:21.955Z,17.43
2019-01-30T22:47:50.619Z,26.07
2019-01-30T22:50:20.550Z,24.10
2019-01-30T22:52:49.383Z,39.13
2019-01-30T22:55:19.891Z,28.37
2019-01-30T22:57:50.708Z,43.43
2019-01-30T23:00:29.370Z,40.43
2019-01-30T23:02:58.143Z,33.97
2019-01-30T23:05:46.313Z,42.37
2019-01-30T23:08:22.934Z,46.53
2019-01-30T23:11:10.671Z,37.60
2019-01-30T23:13:42.214Z,29.90
2019-01-30T23:16:16.296Z,24.93
2019-01-30T23:18:50.916Z,24.03
2019-01-30T23:21:22.496Z,32.23
2019-01-30T23:23:56.814Z,29.27
2019-01-30T23:26:34.261Z,30.20
2019-01-30T23:29:23.944Z,26.20
2019-01-30T23:31:58.288Z,24.63
2019-01-30T23:34:38.471Z,26.50
2019-01-30T23:37:19.382Z,26.80
2019-01-30T23:40:06.346Z,25.60
2019-01-30T23:43:06.513Z,26.07
2019-01-30T23:45:59.266Z,21.57
2019-01-30T23:48:46.090Z,19.37
2019-01-30T23:51:40.257Z,20.23
2019-01-30T23:54:32.953Z,16.07
2019-01-30T23:57:12.984Z,15.25
2019-01-30T23:59:59.895Z,14.97
